sensor_id;sensor_type;location;lat;lon;timestamp;pressure;altitude;pressure_sealevel;temperature;humidity
57234;BME280;43090;52.604;13.318;2022-08-19T00:00:45;100473.97;;;20.80;100.00
57234;BME280;43090;52.604;13.318;2022-08-19T00:03:15;100432.22;;;20.88;100.00
57234;BME280;43090;52.604;13.318;2022-08-19T00:05:44;100441.81;;;20.99;100.00
57234;BME280;43090;52.604;13.318;2022-08-19T00:08:12;100487.56;;;21.34;100.00
57234;BME280;43090;52.604;13.318;2022-08-19T00:10:39;100451.19;;;20.96;100.00
57234;BME280;43090;52.604;13.318;2022-08-19T00:13:06;100444.81;;;20.89;100.00
57234;BME280;43090;52.604;13.318;2022-08-19T00:15:32;100482.56;;;21.07;100.00
57234;BME280;43090;52.604;13.318;2022-08-19T00:17:59;100444.13;;;20.87;100.00
57234;BME280;43090;52.604;13.318;2022-08-19T00:20:26;100450.06;;;20.91;100.00
57234;BME280;43090;52.604;13.318;2022-08-19T00:22:53;100482.81;;;20.97;100.00
57234;BME280;43090;52.604;13.318;2022-08-19T00:25:20;100466.81;;;21.18;100.00
57234;BME280;43090;52.604;13.318;2022-08-19T00:27:56;100462.47;;;20.93;100.00
57234;BME280;43090;52.604;13.318;2022-08-19T00:30:23;100463.47;;;21.30;100.00
57234;BME280;43090;52.604;13.318;2022-08-19T00:32:49;100477.13;;;21.07;100.00
57234;BME280;43090;52.604;13.318;2022-08-19T00:35:17;100488.69;;;21.24;100.00
57234;BME280;43090;52.604;13.318;2022-08-19T00:37:48;100493.22;;;20.94;100.00
57234;BME280;43090;52.604;13.318;2022-08-19T00:40:15;100457.91;;;20.62;100.00
57234;BME280;43090;52.604;13.318;2022-08-19T00:42:42;100470.09;;;21.13;100.00
57234;BME280;43090;52.604;13.318;2022-08-19T00:45:19;100482.84;;;20.74;100.00
57234;BME280;43090;52.604;13.318;2022-08-19T00:47:46;100443.03;;;20.96;100.00
57234;BME280;43090;52.604;13.318;2022-08-19T00:50:14;100486.78;;;21.10;100.00
57234;BME280;43090;52.604;13.318;2022-08-19T00:52:42;100482.75;;;21.06;100.00
57234;BME280;43090;52.604;13.318;2022-08-19T00:55:18;100471.13;;;20.97;100.00
57234;BME280;43090;52.604;13.318;2022-08-19T00:57:51;100430.09;;;21.13;100.00
57234;BME280;43090;52.604;13.318;2022-08-19T01:00:25;100447.66;;;21.11;100.00
57234;BME280;43090;52.604;13.318;2022-08-19T01:02:55;100428.22;;;20.99;100.00
57234;BME280;43090;52.604;13.318;2022-08-19T01:05:26;100427.22;;;20.77;100.00
57234;BME280;43090;52.604;13.318;2022-08-19T01:07:58;100466.75;;;21.41;100.00
57234;BME280;43090;52.604;13.318;2022-08-19T01:10:30;100460.44;;;21.10;100.00
57234;BME280;43090;52.604;13.318;2022-08-19T01:13:03;100476.66;;;21.04;100.00
57234;BME280;43090;52.604;13.318;2022-08-19T01:15:39;100457.13;;;21.15;100.00
57234;BME280;43090;52.604;13.318;2022-08-19T01:18:08;100468.81;;;20.86;100.00
57234;BME280;43090;52.604;13.318;2022-08-19T01:20:37;100485.88;;;21.33;100.00
57234;BME280;43090;52.604;13.318;2022-08-19T01:23:03;100467.91;;;20.93;100.00
57234;BME280;43090;52.604;13.318;2022-08-19T01:25:32;100489.66;;;21.46;99.61
57234;BME280;43090;52.604;13.318;2022-08-19T01:28:04;100461.59;;;20.93;100.00
57234;BME280;43090;52.604;13.318;2022-08-19T01:30:37;100470.84;;;21.07;100.00
57234;BME280;43090;52.604;13.318;2022-08-19T01:33:03;100493.03;;;21.34;100.00
57234;BME280;43090;52.604;13.318;2022-08-19T01:35:32;100471.00;;;20.90;100.00
57234;BME280;43090;52.604;13.318;2022-08-19T01:38:02;100465.66;;;20.97;100.00
57234;BME280;43090;52.604;13.318;2022-08-19T01:40:36;100482.19;;;20.72;100.00
57234;BME280;43090;52.604;13.318;2022-08-19T01:43:04;100468.22;;;20.52;100.00
57234;BME280;43090;52.604;13.318;2022-08-19T01:45:33;100463.53;;;20.69;100.00
57234;BME280;43090;52.604;13.318;2022-08-19T01:48:03;100482.31;;;21.17;100.00
57234;BME280;43090;52.604;13.318;2022-08-19T01:50:31;100489.97;;;20.99;100.00
57234;BME280;43090;52.604;13.318;2022-08-19T01:52:59;100506.41;;;20.82;100.00
57234;BME280;43090;52.604;13.318;2022-08-19T01:55:35;100519.53;;;21.02;100.00
57234;BME280;43090;52.604;13.318;2022-08-19T01:58:08;100502.78;;;21.28;100.00
57234;BME280;43090;52.604;13.318;2022-08-19T02:00:37;100529.16;;;20.89;100.00
57234;BME280;43090;52.604;13.318;2022-08-19T02:03:03;100497.78;;;21.17;100.00
57234;BME280;43090;52.604;13.318;2022-08-19T02:05:30;100522.34;;;21.32;100.00
57234;BME280;43090;52.604;13.318;2022-08-19T02:08:05;100484.16;;;21.17;100.00
57234;BME280;43090;52.604;13.318;2022-08-19T02:10:51;100491.06;;;20.89;100.00
57234;BME280;43090;52.604;13.318;2022-08-19T02:13:36;100513.34;;;21.46;100.00
57234;BME280;43090;52.604;13.318;2022-08-19T02:16:17;100483.66;;;21.51;100.00
57234;BME280;43090;52.604;13.318;2022-08-19T02:19:04;100458.41;;;20.89;100.00
57234;BME280;43090;52.604;13.318;2022-08-19T02:22:03;100435.38;;;21.15;100.00
57234;BME280;43090;52.604;13.318;2022-08-19T02:24:47;100404.50;;;20.70;100.00
57234;BME280;43090;52.604;13.318;2022-08-19T02:27:53;100411.56;;;20.79;100.00
57234;BME280;43090;52.604;13.318;2022-08-19T02:30:45;100396.19;;;20.48;100.00
57234;BME280;43090;52.604;13.318;2022-08-19T02:33:43;100363.16;;;20.51;100.00
57234;BME280;43090;52.604;13.318;2022-08-19T02:36:33;100370.50;;;20.27;100.00
57234;BME280;43090;52.604;13.318;2022-08-19T02:39:30;100383.19;;;20.35;100.00
57234;BME280;43090;52.604;13.318;2022-08-19T02:54:15;100358.53;;;20.13;100.00
57234;BME280;43090;52.604;13.318;2022-08-19T03:12:41;100398.59;;;20.43;100.00
57234;BME280;43090;52.604;13.318;2022-08-19T03:15:08;100405.69;;;20.67;100.00
57234;BME280;43090;52.604;13.318;2022-08-19T03:17:37;100411.41;;;20.57;100.00
57234;BME280;43090;52.604;13.318;2022-08-19T03:20:07;100368.81;;;20.50;100.00
57234;BME280;43090;52.604;13.318;2022-08-19T03:22:41;100380.69;;;20.48;100.00
57234;BME280;43090;52.604;13.318;2022-08-19T03:25:10;100373.16;;;20.36;100.00
57234;BME280;43090;52.604;13.318;2022-08-19T03:27:44;100379.00;;;20.47;100.00
57234;BME280;43090;52.604;13.318;2022-08-19T03:30:16;100384.63;;;20.69;100.00
57234;BME280;43090;52.604;13.318;2022-08-19T03:32:48;100384.78;;;20.68;100.00
57234;BME280;43090;52.604;13.318;2022-08-19T03:35:31;100365.03;;;20.74;100.00
57234;BME280;43090;52.604;13.318;2022-08-19T03:41:58;100349.25;;;20.31;100.00
57234;BME280;43090;52.604;13.318;2022-08-19T03:44:48;100364.38;;;20.25;100.00
57234;BME280;43090;52.604;13.318;2022-08-19T03:47:15;100357.81;;;20.43;100.00
57234;BME280;43090;52.604;13.318;2022-08-19T03:49:44;100370.13;;;20.30;100.00
57234;BME280;43090;52.604;13.318;2022-08-19T03:52:13;100405.38;;;20.47;100.00
57234;BME280;43090;52.604;13.318;2022-08-19T03:54:41;100388.81;;;20.34;100.00
57234;BME280;43090;52.604;13.318;2022-08-19T03:57:08;100372.66;;;20.32;100.00
57234;BME280;43090;52.604;13.318;2022-08-19T03:59:36;100381.38;;;20.27;100.00
57234;BME280;43090;52.604;13.318;2022-08-19T04:02:09;100385.41;;;20.31;100.00
57234;BME280;43090;52.604;13.318;2022-08-19T04:04:41;100348.47;;;20.22;100.00
57234;BME280;43090;52.604;13.318;2022-08-19T04:07:11;100383.06;;;20.28;100.00
57234;BME280;43090;52.604;13.318;2022-08-19T04:09:41;100363.97;;;20.37;100.00
57234;BME280;43090;52.604;13.318;2022-08-19T04:12:08;100373.94;;;20.44;100.00
57234;BME280;43090;52.604;13.318;2022-08-19T04:14:34;100378.50;;;20.44;100.00
57234;BME280;43090;52.604;13.318;2022-08-19T04:17:01;100396.66;;;20.28;100.00
57234;BME280;43090;52.604;13.318;2022-08-19T04:19:32;100377.56;;;20.13;100.00
57234;BME280;43090;52.604;13.318;2022-08-19T04:21:59;100379.75;;;20.41;100.00
57234;BME280;43090;52.604;13.318;2022-08-19T04:24:29;100401.47;;;20.64;100.00
57234;BME280;43090;52.604;13.318;2022-08-19T04:27:02;100393.16;;;20.43;100.00
57234;BME280;43090;52.604;13.318;2022-08-19T04:29:29;100372.00;;;20.07;100.00
57234;BME280;43090;52.604;13.318;2022-08-19T04:31:58;100432.78;;;20.37;100.00
57234;BME280;43090;52.604;13.318;2022-08-19T04:34:57;100403.53;;;20.16;100.00
57234;BME280;43090;52.604;13.318;2022-08-19T04:37:46;100407.63;;;20.12;100.00
57234;BME280;43090;52.604;13.318;2022-08-19T04:40:13;100414.59;;;20.14;100.00
57234;BME280;43090;52.604;13.318;2022-08-19T04:43:01;100418.41;;;20.28;100.00
57234;BME280;43090;52.604;13.318;2022-08-19T04:45:28;100416.13;;;20.40;100.00
57234;BME280;43090;52.604;13.318;2022-08-19T05:29:09;100379.06;;;20.39;100.00
57234;BME280;43090;52.604;13.318;2022-08-19T05:31:37;100344.56;;;20.40;100.00
57234;BME280;43090;52.604;13.318;2022-08-19T05:34:07;100349.00;;;20.56;100.00
57234;BME280;43090;52.604;13.318;2022-08-19T05:36:45;100364.50;;;20.55;100.00
57234;BME280;43090;52.604;13.318;2022-08-19T05:39:16;100342.94;;;20.54;100.00
57234;BME280;43090;52.604;13.318;2022-08-19T05:41:45;100349.50;;;20.59;100.00
57234;BME280;43090;52.604;13.318;2022-08-19T05:44:12;100370.88;;;20.62;100.00
57234;BME280;43090;52.604;13.318;2022-08-19T05:46:43;100363.63;;;20.78;100.00
57234;BME280;43090;52.604;13.318;2022-08-19T05:49:09;100382.13;;;21.12;100.00
57234;BME280;43090;52.604;13.318;2022-08-19T05:51:36;100331.75;;;20.87;100.00
57234;BME280;43090;52.604;13.318;2022-08-19T05:54:05;100336.16;;;21.03;100.00
57234;BME280;43090;52.604;13.318;2022-08-19T05:56:32;100367.59;;;21.20;100.00
57234;BME280;43090;52.604;13.318;2022-08-19T05:59:08;100357.44;;;20.84;100.00
57234;BME280;43090;52.604;13.318;2022-08-19T06:01:42;100349.09;;;21.01;100.00
57234;BME280;43090;52.604;13.318;2022-08-19T06:04:09;100380.75;;;21.32;100.00
57234;BME280;43090;52.604;13.318;2022-08-19T06:06:36;100363.47;;;20.94;100.00
57234;BME280;43090;52.604;13.318;2022-08-19T06:09:07;100368.31;;;21.44;100.00
57234;BME280;43090;52.604;13.318;2022-08-19T06:11:38;100399.59;;;21.78;100.00
57234;BME280;43090;52.604;13.318;2022-08-19T06:14:10;100394.84;;;21.87;100.00
57234;BME280;43090;52.604;13.318;2022-08-19T06:16:42;100367.03;;;21.70;100.00
57234;BME280;43090;52.604;13.318;2022-08-19T06:19:15;100423.81;;;21.88;100.00
57234;BME280;43090;52.604;13.318;2022-08-19T06:21:44;100404.19;;;21.77;100.00
57234;BME280;43090;52.604;13.318;2022-08-19T06:24:16;100414.53;;;21.82;100.00
57234;BME280;43090;52.604;13.318;2022-08-19T06:26:47;100403.75;;;21.59;100.00
57234;BME280;43090;52.604;13.318;2022-08-19T06:29:17;100414.00;;;21.93;100.00
57234;BME280;43090;52.604;13.318;2022-08-19T06:31:52;100419.22;;;21.88;100.00
57234;BME280;43090;52.604;13.318;2022-08-19T06:34:20;100391.69;;;21.53;100.00
57234;BME280;43090;52.604;13.318;2022-08-19T06:37:08;100372.63;;;21.53;100.00
57234;BME280;43090;52.604;13.318;2022-08-19T06:39:37;100388.16;;;21.53;100.00
57234;BME280;43090;52.604;13.318;2022-08-19T06:45:46;100377.56;;;21.58;100.00
57234;BME280;43090;52.604;13.318;2022-08-19T06:48:27;100419.38;;;22.02;100.00
57234;BME280;43090;52.604;13.318;2022-08-19T06:50:57;100406.00;;;21.70;100.00
57234;BME280;43090;52.604;13.318;2022-08-19T06:53:41;100406.63;;;21.87;100.00
57234;BME280;43090;52.604;13.318;2022-08-19T06:56:45;100444.97;;;21.86;100.00
57234;BME280;43090;52.604;13.318;2022-08-19T06:59:20;100416.22;;;21.83;99.92
57234;BME280;43090;52.604;13.318;2022-08-19T07:01:56;100404.84;;;21.50;100.00
57234;BME280;43090;52.604;13.318;2022-08-19T07:04:27;100433.31;;;21.77;100.00
57234;BME280;43090;52.604;13.318;2022-08-19T07:07:08;100404.50;;;21.53;100.00
57234;BME280;43090;52.604;13.318;2022-08-19T07:09:47;100453.50;;;21.83;100.00
57234;BME280;43090;52.604;13.318;2022-08-19T07:12:27;100449.34;;;22.02;100.00
57234;BME280;43090;52.604;13.318;2022-08-19T07:14:59;100426.41;;;21.96;100.00
57234;BME280;43090;52.604;13.318;2022-08-19T07:17:30;100456.97;;;21.91;100.00
57234;BME280;43090;52.604;13.318;2022-08-19T07:19:59;100439.69;;;21.99;100.00
57234;BME280;43090;52.604;13.318;2022-08-19T07:22:34;100412.94;;;21.73;100.00
57234;BME280;43090;52.604;13.318;2022-08-19T07:25:09;100400.91;;;21.82;100.00
57234;BME280;43090;52.604;13.318;2022-08-19T07:27:36;100430.75;;;21.90;100.00
57234;BME280;43090;52.604;13.318;2022-08-19T07:30:06;100425.03;;;21.85;100.00
57234;BME280;43090;52.604;13.318;2022-08-19T07:36:23;100409.03;;;21.60;100.00
57234;BME280;43090;52.604;13.318;2022-08-19T07:39:03;100417.72;;;21.71;100.00
57234;BME280;43090;52.604;13.318;2022-08-19T07:42:39;100429.44;;;21.86;100.00
57234;BME280;43090;52.604;13.318;2022-08-19T07:45:15;100425.81;;;21.64;100.00
57234;BME280;43090;52.604;13.318;2022-08-19T07:47:45;100434.25;;;21.69;100.00
57234;BME280;43090;52.604;13.318;2022-08-19T07:57:58;100449.28;;;21.80;100.00
57234;BME280;43090;52.604;13.318;2022-08-19T08:00:25;100440.81;;;21.75;100.00
57234;BME280;43090;52.604;13.318;2022-08-19T08:02:53;100453.63;;;21.74;100.00
57234;BME280;43090;52.604;13.318;2022-08-19T08:20:20;100471.78;;;21.67;100.00
57234;BME280;43090;52.604;13.318;2022-08-19T08:22:47;100454.66;;;21.88;100.00
57234;BME280;43090;52.604;13.318;2022-08-19T08:26:12;100490.94;;;22.25;100.00
57234;BME280;43090;52.604;13.318;2022-08-19T08:36:36;100512.56;;;22.12;100.00
57234;BME280;43090;52.604;13.318;2022-08-19T08:39:19;100493.75;;;22.17;100.00
57234;BME280;43090;52.604;13.318;2022-08-19T08:41:58;100517.94;;;22.35;100.00
57234;BME280;43090;52.604;13.318;2022-08-19T08:52:24;100529.47;;;22.22;100.00
57234;BME280;43090;52.604;13.318;2022-08-19T08:55:05;100484.88;;;21.93;100.00
57234;BME280;43090;52.604;13.318;2022-08-19T11:39:49;100473.78;;;22.32;94.61
57234;BME280;43090;52.604;13.318;2022-08-19T11:46:41;100474.13;;;22.58;92.71
57234;BME280;43090;52.604;13.318;2022-08-19T11:49:50;100494.38;;;22.71;92.95
57234;BME280;43090;52.604;13.318;2022-08-19T11:52:24;100477.69;;;22.59;93.62
57234;BME280;43090;52.604;13.318;2022-08-19T11:59:24;100479.84;;;22.27;93.31
57234;BME280;43090;52.604;13.318;2022-08-19T12:05:39;100507.84;;;22.36;93.00
57234;BME280;43090;52.604;13.318;2022-08-19T12:08:36;100510.91;;;22.11;95.81
57234;BME280;43090;52.604;13.318;2022-08-19T12:14:59;100515.16;;;22.50;90.47
57234;BME280;43090;52.604;13.318;2022-08-19T12:22:16;100555.84;;;22.88;94.17
57234;BME280;43090;52.604;13.318;2022-08-19T12:25:04;100509.72;;;22.72;90.42
57234;BME280;43090;52.604;13.318;2022-08-19T12:35:48;100527.78;;;22.21;91.96
57234;BME280;43090;52.604;13.318;2022-08-19T12:57:30;100569.75;;;22.93;87.48
57234;BME280;43090;52.604;13.318;2022-08-19T13:00:25;100533.69;;;22.98;86.61
57234;BME280;43090;52.604;13.318;2022-08-19T13:03:07;100551.53;;;23.16;88.90
57234;BME280;43090;52.604;13.318;2022-08-19T13:10:25;100496.16;;;23.28;86.53
57234;BME280;43090;52.604;13.318;2022-08-19T13:13:58;100511.06;;;23.26;85.61
57234;BME280;43090;52.604;13.318;2022-08-19T13:20:46;100515.13;;;23.72;80.59
57234;BME280;43090;52.604;13.318;2022-08-19T13:23:54;100519.28;;;23.89;79.85
57234;BME280;43090;52.604;13.318;2022-08-19T13:26:27;100513.69;;;23.41;83.61
57234;BME280;43090;52.604;13.318;2022-08-19T13:28:59;100512.31;;;23.58;79.93
57234;BME280;43090;52.604;13.318;2022-08-19T13:32:16;100560.59;;;24.08;77.63
57234;BME280;43090;52.604;13.318;2022-08-19T13:35:29;100518.19;;;23.55;85.32
57234;BME280;43090;52.604;13.318;2022-08-19T13:38:21;100520.97;;;23.62;83.96
57234;BME280;43090;52.604;13.318;2022-08-19T13:45:05;100520.72;;;23.57;81.85
57234;BME280;43090;52.604;13.318;2022-08-19T14:03:21;100522.63;;;23.28;85.84
57234;BME280;43090;52.604;13.318;2022-08-19T14:05:57;100498.81;;;23.22;82.84
57234;BME280;43090;52.604;13.318;2022-08-19T14:13:12;100493.50;;;23.13;81.98
57234;BME280;43090;52.604;13.318;2022-08-19T14:16:20;100531.16;;;23.18;81.38
57234;BME280;43090;52.604;13.318;2022-08-19T14:18:52;100479.72;;;23.00;84.12
57234;BME280;43090;52.604;13.318;2022-08-19T14:29:02;100501.50;;;23.43;80.25
57234;BME280;43090;52.604;13.318;2022-08-19T14:31:38;100515.91;;;23.59;77.28
57234;BME280;43090;52.604;13.318;2022-08-19T16:09:30;100585.09;;;22.36;88.82
57234;BME280;43090;52.604;13.318;2022-08-19T16:12:04;100562.44;;;22.06;91.98
57234;BME280;43090;52.604;13.318;2022-08-19T16:14:49;100584.00;;;22.22;91.49
57234;BME280;43090;52.604;13.318;2022-08-19T16:17:17;100609.63;;;22.36;91.98
57234;BME280;43090;52.604;13.318;2022-08-19T16:19:44;100581.97;;;22.24;92.14
57234;BME280;43090;52.604;13.318;2022-08-19T16:22:27;100577.81;;;22.43;89.56
57234;BME280;43090;52.604;13.318;2022-08-19T16:36:39;100560.91;;;22.18;91.06
57234;BME280;43090;52.604;13.318;2022-08-19T16:50:56;100618.31;;;22.61;89.95
57234;BME280;43090;52.604;13.318;2022-08-19T16:54:07;100600.31;;;22.45;91.36
57234;BME280;43090;52.604;13.318;2022-08-19T16:57:22;100576.25;;;22.04;93.02
57234;BME280;43090;52.604;13.318;2022-08-19T23:24:30;100734.16;;;21.13;98.31
57234;BME280;43090;52.604;13.318;2022-08-19T23:43:59;100702.59;;;20.95;98.07
57234;BME280;43090;52.604;13.318;2022-08-19T23:47:25;100748.78;;;21.12;100.00
